California Hornblower — WDB8632 — position and weather

sailwx.info

Track history (hours):
 
Tides and Currents Weather Stations Pressure Air Temp Water Temp Dewpoint Dewpoint Depression Visibility Wind Speed Wind Dir Waves Ship Positions

California Hornblower

Owner: hornblower cruises and events, san francisco, CA. More information available from US FCC via Universal Licensing System and Coast Guard Vessel Documentation Center.

Last reported at 2018-Jan-22 02:28 UTC. Time now 2018-Jan-22 02:49 UTC.
Position N 37°48' W 122°24'.

Length 54 m; draft 4.8 m.

Type: Passenger vessel. MMSI: 366961920.

Date/timePositionNaut miles runAvg speedWind from/ knotsBaromVisibWave heightAir tempDewpointWater temp
2018-Jan-22 02:28N 37°48' W 122°24'0 0.0
2018-Jan-22 01:53N 37°48' W 122°24'0 0.0
2018-Jan-22 01:29N 37°48' W 122°24'0 0.0
2018-Jan-22 00:56N 37°48' W 122°24'0 0.0
2018-Jan-21 22:00N 37°48' W 122°24'0 0.0
2018-Jan-21 21:30N 37°48' W 122°24'0 1.0
2018-Jan-21 21:01N 37°48' W 122°24'4 7.5
2018-Jan-21 20:30N 37°50' W 122°28'2 4.8
2018-Jan-21 20:00N 37°50' W 122°25'2 4.3
2018-Jan-21 19:30N 37°48' W 122°24'0 0.0
2018-Jan-21 18:58N 37°48' W 122°24'0 0.0
2018-Jan-21 18:27N 37°48' W 122°24'0 0.0
2018-Jan-21 17:59N 37°48' W 122°24'0 0.0
2018-Jan-21 07:26N 37°48' W 122°24'0 0.0
2018-Jan-21 07:00N 37°48' W 122°24'0 1.0
2018-Jan-21 06:30N 37°48' W 122°23'1 2.7
2018-Jan-21 06:01N 37°46' W 122°23'1 1.4
2018-Jan-21 05:30N 37°47' W 122°22'2 4.2
2018-Jan-21 05:00N 37°49' W 122°21'2 3.3
2018-Jan-21 04:30N 37°50' W 122°22'2 3.8
2018-Jan-21 04:00N 37°50' W 122°25'2 3.5
2018-Jan-21 03:30N 37°48' W 122°24'0 0.7
2018-Jan-21 02:56N 37°48' W 122°24'0 0.0
2018-Jan-21 02:26N 37°48' W 122°24'1 1.8
2018-Jan-21 02:00N 37°47' W 122°23'1 1.5
2018-Jan-21 01:29N 37°48' W 122°24'0 0.0
2018-Jan-21 00:58N 37°48' W 122°24'0 0.0
2018-Jan-20 21:50N 37°48' W 122°24'0 0.0
2018-Jan-20 21:30N 37°48' W 122°24'1 3.0
2018-Jan-20 21:00N 37°49' W 122°24'3 5.3
2018-Jan-20 20:30N 37°49' W 122°28'2 3.5
2018-Jan-20 20:00N 37°49' W 122°26'2 3.6
2018-Jan-20 19:30N 37°48' W 122°24'0 0.0
2018-Jan-20 19:00N 37°48' W 122°24'0 0.0
2018-Jan-20 18:30N 37°48' W 122°24'0 0.0
2018-Jan-20 06:48N 37°48' W 122°24'0 0.0
2018-Jan-20 06:31N 37°48' W 122°24'1 1.1
2018-Jan-20 06:00N 37°48' W 122°23'3 6.3
2018-Jan-20 05:30N 37°49' W 122°27'3 5.8
2018-Jan-20 05:01N 37°51' W 122°28'3 5.5
2018-Jan-20 04:30N 37°52' W 122°25'3 5.7
2018-Jan-20 04:00N 37°49' W 122°25'2 3.5
2018-Jan-20 03:31N 37°48' W 122°24'0 0.0
2018-Jan-20 03:00N 37°48' W 122°24'  
Track history (hours):
 
Tides and Currents Weather Stations Pressure Air Temp Water Temp Dewpoint Dewpoint Depression Visibility Wind Speed Wind Dir Waves Ship Positions

California Hornblower

Owner: hornblower cruises and events, san francisco, CA. More information available from US FCC via Universal Licensing System and Coast Guard Vessel Documentation Center.

Last reported at 2018-Jan-22 02:28 UTC. Time now 2018-Jan-22 02:49 UTC.
Position N 37°48' W 122°24'.

Length 54 m; draft 4.8 m.

Type: Passenger vessel. MMSI: 366961920.

Date/timePositionNaut miles runAvg speedWind from/ knotsBaromVisibWave heightAir tempDewpointWater temp
2018-Jan-22 02:28N 37°48' W 122°24'0 0.0
2018-Jan-22 01:53N 37°48' W 122°24'0 0.0
2018-Jan-22 01:29N 37°48' W 122°24'0 0.0
2018-Jan-22 00:56N 37°48' W 122°24'0 0.0
2018-Jan-21 22:00N 37°48' W 122°24'0 0.0
2018-Jan-21 21:30N 37°48' W 122°24'0 1.0
2018-Jan-21 21:01N 37°48' W 122°24'4 7.5
2018-Jan-21 20:30N 37°50' W 122°28'2 4.8
2018-Jan-21 20:00N 37°50' W 122°25'2 4.3
2018-Jan-21 19:30N 37°48' W 122°24'0 0.0
2018-Jan-21 18:58N 37°48' W 122°24'0 0.0
2018-Jan-21 18:27N 37°48' W 122°24'0 0.0
2018-Jan-21 17:59N 37°48' W 122°24'0 0.0
2018-Jan-21 07:26N 37°48' W 122°24'0 0.0
2018-Jan-21 07:00N 37°48' W 122°24'0 1.0
2018-Jan-21 06:30N 37°48' W 122°23'1 2.7
2018-Jan-21 06:01N 37°46' W 122°23'1 1.4
2018-Jan-21 05:30N 37°47' W 122°22'2 4.2
2018-Jan-21 05:00N 37°49' W 122°21'2 3.3
2018-Jan-21 04:30N 37°50' W 122°22'2 3.8
2018-Jan-21 04:00N 37°50' W 122°25'2 3.5
2018-Jan-21 03:30N 37°48' W 122°24'0 0.7
2018-Jan-21 02:56N 37°48' W 122°24'0 0.0
2018-Jan-21 02:26N 37°48' W 122°24'1 1.8
2018-Jan-21 02:00N 37°47' W 122°23'1 1.5
2018-Jan-21 01:29N 37°48' W 122°24'0 0.0
2018-Jan-21 00:58N 37°48' W 122°24'0 0.0
2018-Jan-20 21:50N 37°48' W 122°24'0 0.0
2018-Jan-20 21:30N 37°48' W 122°24'1 3.0
2018-Jan-20 21:00N 37°49' W 122°24'3 5.3
2018-Jan-20 20:30N 37°49' W 122°28'2 3.5
2018-Jan-20 20:00N 37°49' W 122°26'2 3.6
2018-Jan-20 19:30N 37°48' W 122°24'0 0.0
2018-Jan-20 19:00N 37°48' W 122°24'0 0.0
2018-Jan-20 18:30N 37°48' W 122°24'0 0.0
2018-Jan-20 06:48N 37°48' W 122°24'0 0.0
2018-Jan-20 06:31N 37°48' W 122°24'1 1.1
2018-Jan-20 06:00N 37°48' W 122°23'3 6.3
2018-Jan-20 05:30N 37°49' W 122°27'3 5.8
2018-Jan-20 05:01N 37°51' W 122°28'3 5.5
2018-Jan-20 04:30N 37°52' W 122°25'3 5.7
2018-Jan-20 04:00N 37°49' W 122°25'2 3.5
2018-Jan-20 03:31N 37°48' W 122°24'0 0.0
2018-Jan-20 03:00N 37°48' W 122°24'  

Dump ship's entire track history